Terminal Aerodrome Forecast
Issued by NWS Portland, ME

Home | Current Version | Previous Version | Text Only | Print | Product List | Glossary On
Versions: 1 2 3 4 5 6 7 8 9 10 11 12 13 14 15 16 17 18
349
FTUS41 KGYX 082320
TAFCON
TAF
KCON 082320Z 0900/0924 36008KT 1SM -SN OVC022
      TEMPO 0900/0904 3SM -SN BR OVC025
     FM090900 35003KT 1 1/2SM -SN BR OVC015
     FM091200 35004KT P6SM OVC015=

USA.gov is the U.S. government's official web portal to all federal, state and local government web resources and services.